Time;durP1;ratioP1;P1;durP2;ratioP2;P2;SDS_P1;SDS_P2;PMS_P1;PMS_P2;Temp;Humidity;BMP_temperature;BMP_pressure;BME280_temperature;BME280_humidity;BME280_pressure;Samples;Min_cycle;Max_cycle;Signal;HPM_P1;HPM_P2
2023/04/14 00:02:13;;;;;;;13.90;10.40;;;;;;;9.88;74.80;99279.74;103156;1258;108524;-73
2023/04/14 00:04:40;;;;;;;12.80;9.80;;;;;;;9.85;74.30;99275.67;103055;1256;138668;-72
2023/04/14 00:07:15;;;;;;;12.10;9.60;;;;;;;9.83;74.29;99278.05;103187;1256;111235;-74
2023/04/14 00:09:40;;;;;;;12.70;9.60;;;;;;;9.80;74.34;99275.25;103192;1256;108301;-74
2023/04/14 00:12:12;;;;;;;12.70;9.80;;;;;;;9.78;74.56;99271.52;103039;1256;138297;-74
2023/04/14 00:14:35;;;;;;;12.80;10.20;;;;;;;9.76;74.63;99269.02;103135;1256;107582;-74
2023/04/14 00:17:19;;;;;;;12.60;10.00;;;;;;;9.74;74.59;99266.83;102976;1256;138491;-74
2023/04/14 00:19:46;;;;;;;12.60;9.80;;;;;;;9.72;75.04;99265.55;103146;1256;110991;-74
2023/04/14 00:22:20;;;;;;;13.20;10.00;;;;;;;9.69;74.76;99270.14;103026;1255;107477;-75
2023/04/14 00:24:45;;;;;;;12.70;9.30;;;;;;;9.69;74.81;99275.02;102953;1256;138524;-75
2023/04/14 00:27:08;;;;;;;12.20;9.10;;;;;;;9.68;75.07;99271.91;103112;1256;107751;-75
2023/04/14 00:29:37;;;;;;;11.20;9.80;;;;;;;9.68;74.93;99271.91;102962;1256;138801;-74
2023/04/14 00:32:01;;;;;;;10.80;9.20;;;;;;;9.68;74.78;99267.05;103102;1258;112299;-74
2023/04/14 00:34:26;;;;;;;13.90;9.10;;;;;;;9.69;75.25;99263.21;103051;1255;106121;-74
2023/04/14 00:36:53;;;;;;;10.90;8.30;;;;;;;9.69;75.16;99259.37;103023;1260;138150;-74
2023/04/14 00:39:17;;;;;;;10.00;8.10;;;;;;;9.71;75.45;99260.90;103067;1256;107534;-74
2023/04/14 00:41:44;;;;;;;10.40;8.20;;;;;;;9.72;76.09;99257.90;102938;1255;139269;-74
2023/04/14 00:44:15;;;;;;;10.30;8.10;;;;;;;9.73;75.39;99255.27;103052;1256;110047;-74
2023/04/14 00:46:42;;;;;;;9.90;7.60;;;;;;;9.74;75.59;99257.81;103015;1256;138455;-74
2023/04/14 00:49:06;;;;;;;11.70;7.40;;;;;;;9.74;75.45;99252.74;103172;1256;97788;-74
2023/04/14 00:51:36;;;;;;;10.70;7.30;;;;;;;9.77;75.89;99254.38;103085;1256;109565;-74
2023/04/14 00:54:10;;;;;;;12.00;7.50;;;;;;;9.78;75.76;99252.05;102996;1259;138291;-75
2023/04/14 00:56:56;;;;;;;10.60;7.50;;;;;;;9.79;75.34;99253.74;103078;1260;111283;-75
2023/04/14 00:59:31;;;;;;;9.20;8.00;;;;;;;9.80;75.77;99255.10;102881;1260;138427;-75
2023/04/14 01:01:59;;;;;;;10.50;8.20;;;;;;;9.79;75.52;99258.95;103116;1256;97881;-75
2023/04/14 01:04:44;;;;;;;10.10;7.80;;;;;;;9.79;75.43;99256.34;102856;1260;138342;-74
2023/04/14 01:07:18;;;;;;;11.30;8.10;;;;;;;9.79;75.22;99257.58;102978;1256;97879;-74
2023/04/14 01:09:44;;;;;;;9.90;7.50;;;;;;;9.78;75.11;99256.91;103031;1255;110948;-74
2023/04/14 01:12:48;;;;;;;9.20;7.90;;;;;;;9.78;75.36;99263.19;103218;1256;138107;-75
2023/04/14 01:15:22;;;;;;;12.10;8.70;;;;;;;9.76;75.46;99261.35;102988;1260;100048;-74
2023/04/14 01:17:53;;;;;;;9.80;7.70;;;;;;;9.73;75.26;99258.36;102925;1256;138557;-74
2023/04/14 01:20:26;;;;;;;11.70;8.50;;;;;;;9.71;75.14;99260.73;103026;1259;97783;-74
2023/04/14 01:22:57;;;;;;;10.00;8.50;;;;;;;9.68;75.25;99259.73;103098;1260;138711;-74
2023/04/14 01:26:05;;;;;;;11.10;8.60;;;;;;;9.67;75.45;99263.65;102934;1256;108332;-74
2023/04/14 01:28:55;;;;;;;11.40;8.80;;;;;;;9.63;75.40;99262.09;102967;1256;97688;-74
2023/04/14 01:31:43;;;;;;;13.20;9.00;;;;;;;9.59;75.30;99261.41;103075;1256;107401;-74
2023/04/14 01:34:13;;;;;;;11.90;8.40;;;;;;;9.57;75.30;99265.16;103043;1256;97775;-74
2023/04/14 01:37:01;;;;;;;11.20;8.30;;;;;;;9.54;75.46;99262.48;103057;1256;138341;-73
2023/04/14 01:39:41;;;;;;;11.60;9.00;;;;;;;9.50;75.83;99265.78;103120;1259;107766;-75
2023/04/14 01:42:32;;;;;;;13.50;9.50;;;;;;;9.45;75.95;99264.61;103005;1256;138358;-73
2023/04/14 01:45:01;;;;;;;10.10;9.00;;;;;;;9.42;75.90;99264.23;103025;1260;106656;-73
2023/04/14 01:47:28;;;;;;;11.80;9.20;;;;;;;9.39;76.06;99266.44;102993;1256;138566;-74
2023/04/14 01:50:06;;;;;;;12.60;9.60;;;;;;;9.35;76.38;99263.31;103072;1260;114142;-74
2023/04/14 01:52:53;;;;;;;10.60;8.50;;;;;;;9.32;76.21;99259.08;102972;1256;138602;-74
2023/04/14 01:55:19;;;;;;;11.20;8.30;;;;;;;9.29;76.26;99262.14;103067;1257;97677;-75
2023/04/14 01:57:45;;;;;;;12.70;9.00;;;;;;;9.28;76.35;99259.27;103021;1256;108062;-75
2023/04/14 02:00:12;;;;;;;12.80;8.60;;;;;;;9.27;76.29;99257.77;102937;1257;138301;-75
2023/04/14 02:02:41;;;;;;;14.20;8.80;;;;;;;9.25;76.36;99257.13;104315;1259;111289;-76
2023/04/14 02:05:09;;;;;;;11.80;8.80;;;;;;;9.26;76.40;99259.19;102947;1260;138300;-75
2023/04/14 02:07:34;;;;;;;11.30;8.90;;;;;;;9.26;76.63;99264.40;103075;1256;97884;-75
2023/04/14 02:10:02;;;;;;;12.20;9.50;;;;;;;9.25;77.00;99266.19;103010;1257;108328;-75
2023/04/14 02:12:31;;;;;;;12.10;9.20;;;;;;;9.24;76.99;99270.91;102909;1256;138146;-75
2023/04/14 02:15:00;;;;;;;10.40;9.00;;;;;;;9.23;76.44;99269.55;103098;1256;110817;-75
2023/04/14 02:17:25;;;;;;;11.10;9.00;;;;;;;9.22;76.25;99270.45;102968;1257;138203;-75
2023/04/14 02:19:50;;;;;;;12.20;9.50;;;;;;;9.19;76.15;99268.16;103091;1259;97776;-75
2023/04/14 02:22:15;;;;;;;11.70;9.20;;;;;;;9.17;76.16;99266.02;103074;1256;107629;-75
2023/04/14 02:24:50;;;;;;;10.60;8.80;;;;;;;9.12;76.11;99264.98;102985;1257;138275;-75
2023/04/14 02:27:17;;;;;;;12.60;9.90;;;;;;;9.09;75.97;99266.31;103113;1260;111237;-75
2023/04/14 02:29:47;;;;;;;15.90;11.40;;;;;;;9.05;75.95;99267.15;103075;1256;138550;-75
2023/04/14 02:32:20;;;;;;;17.30;12.80;;;;;;;9.00;76.07;99266.66;103068;1256;97705;-75
2023/04/14 02:34:53;;;;;;;15.50;12.60;;;;;;;8.95;76.05;99266.04;102899;1256;138724;-74
2023/04/14 02:37:35;;;;;;;20.00;13.70;;;;;;;8.90;76.08;99265.02;103048;1256;97799;-75
2023/04/14 02:40:24;;;;;;;18.20;13.60;;;;;;;8.83;76.19;99268.44;103033;1256;111399;-75
2023/04/14 02:43:02;;;;;;;18.60;14.10;;;;;;;8.77;76.36;99268.14;102931;1259;138152;-75
2023/04/14 02:45:29;;;;;;;18.70;13.80;;;;;;;8.71;76.34;99267.00;103054;1256;97807;-75
2023/04/14 02:47:57;;;;;;;18.20;14.60;;;;;;;8.66;76.45;99266.52;102987;1256;138139;-74
2023/04/14 02:50:26;;;;;;;18.90;14.50;;;;;;;8.60;76.42;99266.91;103064;1256;97786;-74
2023/04/14 02:53:00;;;;;;;19.50;15.10;;;;;;;8.54;76.65;99268.40;102961;1256;138617;-74
2023/04/14 02:55:34;;;;;;;20.50;14.70;;;;;;;8.48;76.70;99268.64;103061;1260;107232;-74
2023/04/14 02:57:59;;;;;;;17.40;14.30;;;;;;;8.42;76.89;99269.88;103120;1256;97798;-74
2023/04/14 03:00:23;;;;;;;20.90;14.80;;;;;;;8.37;76.98;99270.58;102886;1260;138456;-72
2023/04/14 03:02:50;;;;;;;18.00;14.90;;;;;;;8.33;77.19;99270.06;103075;1256;97806;-74
2023/04/14 03:05:18;;;;;;;19.20;15.00;;;;;;;8.28;77.41;99274.73;103200;1256;138396;-73
2023/04/14 03:07:53;;;;;;;19.70;15.60;;;;;;;8.24;77.53;99277.48;103091;1260;108529;-72
2023/04/14 03:10:27;;;;;;;21.20;15.40;;;;;;;8.19;77.60;99279.90;103123;1255;98319;-74
2023/04/14 03:12:53;;;;;;;20.20;15.00;;;;;;;8.16;77.79;99281.24;102982;1260;138696;-72
2023/04/14 03:15:21;;;;;;;22.90;15.90;;;;;;;8.12;77.99;99280.86;103186;1260;97760;-72
2023/04/14 03:17:52;;;;;;;19.60;16.30;;;;;;;8.08;78.11;99282.06;103016;1256;139498;-73
2023/04/14 03:20:20;;;;;;;21.80;17.00;;;;;;;8.04;78.19;99281.50;103030;1256;107096;-72
2023/04/14 03:23:00;;;;;;;21.50;17.30;;;;;;;7.99;78.41;99281.71;102933;1260;139187;-73
2023/04/14 03:25:28;;;;;;;20.60;16.90;;;;;;;7.96;78.81;99282.86;103029;1256;107829;-73
2023/04/14 03:27:54;;;;;;;22.70;16.80;;;;;;;7.93;78.82;99287.82;103050;1256;97911;-73
2023/04/14 03:30:24;;;;;;;20.90;16.60;;;;;;;7.90;78.98;99283.77;102909;1256;139000;-74
2023/04/14 03:32:51;;;;;;;21.90;16.00;;;;;;;7.86;78.98;99285.98;103041;1260;107732;-73
2023/04/14 03:35:36;;;;;;;24.60;16.90;;;;;;;7.83;79.34;99286.79;102928;1260;138990;-74
2023/04/14 03:38:07;;;;;;;20.80;16.90;;;;;;;7.81;79.32;99289.81;103005;1257;109286;-73
2023/04/14 03:40:37;;;;;;;19.70;16.40;;;;;;;7.78;79.43;99290.09;103025;1259;97784;-74
2023/04/14 03:43:02;;;;;;;20.80;16.40;;;;;;;7.76;79.64;99291.23;102999;1256;138182;-73
2023/04/14 03:45:48;;;;;;;22.30;17.00;;;;;;;7.73;79.82;99292.89;103001;1256;107931;-74
2023/04/14 03:48:30;;;;;;;21.30;16.30;;;;;;;7.71;79.84;99300.37;102946;1256;138955;-73
2023/04/14 03:51:16;;;;;;;23.30;17.20;;;;;;;7.69;79.98;99301.14;103096;1256;110064;-73
2023/04/14 03:53:46;;;;;;;20.40;16.30;;;;;;;7.68;80.17;99300.66;103007;1256;138491;-73
2023/04/14 03:56:14;;;;;;;22.60;16.90;;;;;;;7.69;80.21;99301.83;102993;1261;111205;-73
2023/04/14 03:58:55;;;;;;;22.90;16.40;;;;;;;7.70;80.26;99300.42;102952;1256;138455;-75
2023/04/14 04:01:27;;;;;;;20.40;16.60;;;;;;;7.71;80.45;99301.92;103046;1256;97680;-73
2023/04/14 04:04:05;;;;;;;19.70;16.30;;;;;;;7.73;80.38;99302.75;102965;1259;107693;-73
2023/04/14 04:06:49;;;;;;;23.90;16.30;;;;;;;7.74;80.34;99304.77;102866;1256;138272;-74
2023/04/14 04:09:14;;;;;;;21.60;16.60;;;;;;;7.75;80.41;99303.00;103613;1256;111289;-73
2023/04/14 04:11:42;;;;;;;23.30;16.60;;;;;;;7.78;80.36;99305.67;104265;1256;138970;-72
2023/04/14 04:14:07;;;;;;;20.30;15.90;;;;;;;7.80;80.31;99305.27;104349;1256;96044;-72
2023/04/14 04:16:37;;;;;;;30.80;16.60;;;;;;;7.82;80.23;99303.44;103364;1256;107495;-73
2023/04/14 04:19:04;;;;;;;;;;;;;;;7.84;80.32;99304.23;102927;1256;138687;-73
2023/04/14 04:21:31;;;;;;;24.10;17.30;;;;;;;7.85;80.20;99305.55;102978;1256;111417;-73
2023/04/14 04:24:14;;;;;;;;;;;;;;;7.85;80.26;99308.50;102861;1261;138361;-71
2023/04/14 04:26:38;;;;;;;28.00;18.80;;;;;;;7.85;80.36;99309.36;103000;1257;97891;-73
2023/04/14 04:29:03;;;;;;;27.30;19.70;;;;;;;7.85;80.31;99308.34;102821;1261;138400;-74
2023/04/14 04:31:32;;;;;;;27.80;20.70;;;;;;;7.86;80.46;99312.11;102949;1260;97919;-73
2023/04/14 04:34:07;;;;;;;29.30;20.90;;;;;;;7.87;80.31;99313.29;103053;1260;111197;-74
2023/04/14 04:36:35;;;;;;;28.80;19.10;;;;;;;7.89;80.29;99319.79;102852;1260;138369;-74
2023/04/14 04:39:03;;;;;;;29.90;20.00;;;;;;;7.91;80.48;99320.95;102983;1257;97705;-74
2023/04/14 04:41:30;;;;;;;32.60;21.00;;;;;;;7.93;80.50;99325.73;102958;1256;138376;-73
2023/04/14 04:43:57;;;;;;;28.90;19.80;;;;;;;7.93;80.54;99325.41;103311;1256;97860;-74
2023/04/14 04:46:47;;;;;;;30.40;20.70;;;;;;;7.91;80.78;99327.19;103768;1256;110244;-74
2023/04/14 04:49:19;;;;;;;41.20;20.90;;;;;;;7.87;81.09;99334.73;103606;1256;108267;-74
2023/04/14 04:51:49;;;;;;;32.80;20.50;;;;;;;7.81;81.12;99335.66;103100;1256;97795;-74
2023/04/14 04:54:33;;;;;;;31.10;20.60;;;;;;;7.76;81.18;99337.60;102521;1261;138324;-63
2023/04/14 04:57:00;;;;;;;40.60;21.10;;;;;;;7.75;81.54;99339.17;102730;1267;97788;-73
2023/04/14 04:59:35;;;;;;;40.10;22.10;;;;;;;7.75;81.67;99342.46;103201;1266;138300;-73
2023/04/14 05:02:01;;;;;;;32.10;21.70;;;;;;;7.75;81.76;99336.59;102538;1267;107256;-73
2023/04/14 05:04:27;;;;;;;37.60;22.60;;;;;;;7.75;81.94;99333.48;102483;1264;98145;-74
2023/04/14 05:06:51;;;;;;;40.80;21.00;;;;;;;7.74;81.93;99332.11;102460;1266;138213;-74
2023/04/14 05:09:20;;;;;;;33.70;21.40;;;;;;;7.76;82.03;99331.69;102610;1264;98118;-73
2023/04/14 05:11:49;;;;;;;39.40;21.20;;;;;;;7.81;82.08;99332.73;102357;1264;138293;-73
2023/04/14 05:14:13;;;;;;;44.30;20.10;;;;;;;7.85;82.06;99333.09;102566;1266;108525;-73
2023/04/14 05:16:37;;;;;;;35.00;19.00;;;;;;;7.89;82.11;99337.96;102644;1264;97809;-72
2023/04/14 05:19:00;;;;;;;41.00;18.20;;;;;;;7.93;82.07;99338.21;100221;1262;3221901;-72
2023/04/14 05:21:24;;;;;;;49.00;19.40;;;;;;;7.97;82.12;99336.31;102680;1261;97810;-72
2023/04/14 05:23:50;;;;;;;42.10;18.90;;;;;;;8.02;82.43;99335.44;102508;1261;138224;-72
2023/04/14 05:26:28;;;;;;;31.90;18.60;;;;;;;8.06;82.37;99334.94;102957;1258;108151;-71
2023/04/14 05:28:57;;;;;;;37.60;18.80;;;;;;;8.10;82.35;99334.98;103237;1258;138530;-72
2023/04/14 05:31:24;;;;;;;28.60;18.80;;;;;;;8.15;82.45;99336.36;103084;1259;108795;-69
2023/04/14 05:33:52;;;;;;;28.50;20.30;;;;;;;8.21;82.43;99338.55;103062;1260;97831;-75
2023/04/14 05:36:26;;;;;;;25.90;19.50;;;;;;;8.27;82.34;99337.31;103076;1256;138635;-75
2023/04/14 05:38:52;;;;;;;26.00;18.60;;;;;;;8.35;82.47;99336.13;103131;1256;108010;-71
2023/04/14 05:41:16;;;;;;;25.10;19.20;;;;;;;8.44;82.31;99337.18;103139;1256;138515;-72
2023/04/14 05:43:51;;;;;;;26.80;19.60;;;;;;;8.55;82.30;99335.92;104332;1256;106999;-74
2023/04/14 05:46:18;;;;;;;27.70;20.50;;;;;;;8.60;82.22;99336.58;103327;1259;97675;-73
2023/04/14 05:48:42;;;;;;;28.20;20.10;;;;;;;8.67;82.08;99334.95;102943;1260;138126;-73
2023/04/14 05:51:07;;;;;;;25.70;19.00;;;;;;;8.75;81.98;99331.14;103015;1257;107862;-73
2023/04/14 05:53:33;;;;;;;;;;;;;;;8.89;81.97;99335.98;102933;1256;138672;-73
2023/04/14 05:55:59;;;;;;;26.90;19.30;;;;;;;9.05;81.85;99337.41;103014;1256;108107;-74
2023/04/14 05:58:43;;;;;;;27.20;19.60;;;;;;;9.19;81.57;99337.38;103122;1261;97773;-75
2023/04/14 06:01:26;;;;;;;28.70;19.10;;;;;;;9.37;81.23;99333.49;103000;1258;112872;-75
2023/04/14 06:04:03;;;;;;;28.70;19.60;;;;;;;9.54;81.07;99335.52;103047;1257;107875;-77
2023/04/14 06:06:27;;;;;;;29.80;19.40;;;;;;;9.67;80.51;99335.49;102885;1260;139171;-75
2023/04/14 06:08:54;;;;;;;25.90;17.90;;;;;;;9.98;80.62;99338.84;103089;1256;108265;-76
2023/04/14 06:11:17;;;;;;;23.30;17.90;;;;;;;10.86;79.73;99337.23;103066;1256;138765;-77
2023/04/14 06:13:51;;;;;;;24.40;17.10;;;;;;;11.16;77.91;99338.76;103061;1258;111142;-75
2023/04/14 06:16:15;;;;;;;24.60;17.60;;;;;;;11.39;77.17;99338.65;103093;1256;108157;-75
2023/04/14 06:18:38;;;;;;;24.20;16.50;;;;;;;11.64;76.36;99336.69;103077;1259;138778;-75
2023/04/14 06:21:06;;;;;;;22.70;16.90;;;;;;;11.75;75.20;99340.47;102995;1259;109687;-70
2023/04/14 06:23:32;;;;;;;25.20;16.80;;;;;;;11.85;74.70;99343.99;102855;1256;138610;-73
2023/04/14 06:25:56;;;;;;;21.30;16.60;;;;;;;11.95;73.92;99347.82;103019;1262;110706;-75
2023/04/14 06:28:22;;;;;;;20.90;15.90;;;;;;;12.06;73.41;99347.27;102970;1261;107496;-75
2023/04/14 06:30:46;;;;;;;18.60;13.90;;;;;;;12.72;73.34;99343.50;102875;1256;138636;-74
2023/04/14 06:33:10;;;;;;;22.40;14.80;;;;;;;13.90;71.17;99340.00;102953;1258;107629;-74
2023/04/14 06:35:34;;;;;;;17.80;13.20;;;;;;;14.88;69.65;99334.45;102781;1258;138873;-73
2023/04/14 06:37:57;;;;;;;19.00;13.00;;;;;;;15.83;67.44;99339.25;102905;1261;112941;-73
2023/04/14 06:40:21;;;;;;;12.80;11.40;;;;;;;16.01;65.68;99342.36;102855;1259;109900;-75
2023/04/14 06:42:48;;;;;;;13.30;11.80;;;;;;;15.86;64.43;99338.48;102883;1259;138846;-75
2023/04/14 06:45:11;;;;;;;14.40;11.20;;;;;;;16.23;64.51;99340.10;102969;1258;107663;-79
2023/04/14 06:47:35;;;;;;;12.50;11.20;;;;;;;17.08;62.50;99333.70;102807;1261;138108;-74
2023/04/14 06:49:59;;;;;;;18.70;12.10;;;;;;;17.89;61.19;99334.09;102968;1256;110523;-62
2023/04/14 06:52:23;;;;;;;17.80;11.40;;;;;;;18.55;60.50;99327.02;103063;1256;108099;-73
2023/04/14 06:54:46;;;;;;;13.60;10.90;;;;;;;18.54;59.21;99324.95;102914;1256;138038;-76
2023/04/14 06:57:10;;;;;;;17.00;10.10;;;;;;;18.20;58.12;99328.05;102915;1256;108438;-76
2023/04/14 06:59:34;;;;;;;13.30;10.00;;;;;;;17.91;58.22;99327.51;102755;1256;137958;-78
2023/04/14 07:01:57;;;;;;;11.30;9.50;;;;;;;18.37;58.57;99326.17;102901;1256;111226;-73
2023/04/14 07:04:22;;;;;;;11.90;9.70;;;;;;;19.14;56.71;99326.50;102794;1260;107416;-75
2023/04/14 07:06:46;;;;;;;12.60;10.30;;;;;;;19.25;54.93;99321.67;102742;1261;137862;-75
2023/04/14 07:09:09;;;;;;;12.40;9.20;;;;;;;19.09;54.56;99322.52;102881;1260;107728;-78
2023/04/14 07:11:33;;;;;;;10.10;8.80;;;;;;;18.86;53.68;99322.07;102704;1256;137968;-74
2023/04/14 07:13:56;;;;;;;11.40;9.10;;;;;;;18.80;53.76;99320.34;102901;1256;111654;-75
2023/04/14 07:16:20;;;;;;;13.40;8.70;;;;;;;18.62;53.20;99322.60;102878;1256;107813;-75
2023/04/14 07:18:44;;;;;;;9.90;8.40;;;;;;;18.68;53.13;99323.69;102845;1256;139322;-75
2023/04/14 07:21:07;;;;;;;13.00;10.40;;;;;;;19.22;52.66;99321.04;103038;1261;106621;-75
2023/04/14 07:23:32;;;;;;;10.80;8.60;;;;;;;19.79;51.63;99325.27;102955;1262;138065;-74
2023/04/14 07:25:57;;;;;;;9.40;7.50;;;;;;;20.83;50.03;99317.27;103143;1256;112292;-75
2023/04/14 07:28:22;;;;;;;8.40;7.30;;;;;;;21.86;49.09;99316.55;102983;1256;108796;-76
2023/04/14 07:30:46;;;;;;;10.50;8.00;;;;;;;23.07;47.81;99310.33;102876;1257;137583;-77
2023/04/14 07:33:09;;;;;;;11.00;8.20;;;;;;;23.93;45.56;99313.06;102817;1258;107768;-65
2023/04/14 07:35:33;;;;;;;10.50;7.40;;;;;;;24.78;44.99;99306.20;102881;1256;137981;-64
2023/04/14 07:37:56;;;;;;;13.20;7.80;;;;;;;25.78;44.18;99304.92;103069;1256;114182;-66
2023/04/14 07:40:20;;;;;;;9.00;6.80;;;;;;;26.83;43.12;99302.48;103026;1256;107935;-65
2023/04/14 07:42:45;;;;;;;9.50;6.70;;;;;;;27.90;41.46;99305.11;102995;1255;137660;-65
2023/04/14 07:45:11;;;;;;;9.00;6.30;;;;;;;28.84;39.82;99305.11;103070;1256;107898;-66
2023/04/14 07:47:34;;;;;;;10.40;5.80;;;;;;;29.59;37.92;99301.99;103354;1255;137784;-65
2023/04/14 07:49:58;;;;;;;9.40;6.20;;;;;;;30.14;36.48;99300.30;104379;1255;114259;-66
2023/04/14 07:52:22;;;;;;;6.40;5.20;;;;;;;30.66;36.08;99302.89;104118;1256;106832;-65
2023/04/14 07:54:45;;;;;;;10.80;5.60;;;;;;;31.15;34.26;99302.00;102839;1260;137677;-65
2023/04/14 07:57:09;;;;;;;7.40;6.00;;;;;;;31.56;34.10;99297.70;102925;1256;110158;-65
2023/04/14 07:59:33;;;;;;;8.90;5.10;;;;;;;31.96;33.39;99301.79;102903;1261;138171;-65
2023/04/14 08:01:56;;;;;;;12.00;8.80;;;;;;;32.30;32.95;99301.19;103092;1256;103124;-65
2023/04/14 08:04:20;;;;;;;9.50;6.80;;;;;;;32.70;32.50;99302.66;103205;1256;100006;-64
2023/04/14 08:06:44;;;;;;;5.40;4.90;;;;;;;33.13;31.02;99297.29;102943;1256;137715;-64
2023/04/14 08:09:07;;;;;;;7.90;4.90;;;;;;;33.30;29.83;99295.17;103065;1260;100078;-64
2023/04/14 08:11:31;;;;;;;8.40;5.00;;;;;;;33.31;29.35;99295.05;102954;1260;137767;-66
2023/04/14 08:13:54;;;;;;;8.80;4.90;;;;;;;33.28;28.75;99293.95;103048;1260;103263;-64
2023/04/14 08:16:18;;;;;;;4.70;4.20;;;;;;;33.35;29.60;99292.09;102991;1256;100496;-65
2023/04/14 08:18:42;;;;;;;8.10;4.30;;;;;;;33.49;28.46;99288.85;102955;1256;139477;-64
2023/04/14 08:21:06;;;;;;;5.70;4.40;;;;;;;33.35;27.98;99293.56;103024;1259;99369;-64
2023/04/14 08:23:30;;;;;;;6.00;4.20;;;;;;;33.18;27.67;99291.06;104323;1256;138540;-64
2023/04/14 08:25:53;;;;;;;5.20;4.40;;;;;;;33.06;27.97;99287.50;103380;1256;103800;-64
2023/04/14 08:28:17;;;;;;;7.00;4.10;;;;;;;32.82;27.11;99288.77;103009;1260;99906;-65
2023/04/14 08:30:40;;;;;;;6.80;4.30;;;;;;;32.59;27.39;99284.98;102963;1256;137546;-65
2023/04/14 08:33:04;;;;;;;7.40;4.10;;;;;;;32.46;27.52;99285.44;103109;1260;98585;-64
2023/04/14 08:35:28;;;;;;;7.30;4.30;;;;;;;32.30;27.31;99286.28;103089;1260;137646;-64
2023/04/14 08:38:04;;;;;;;7.40;3.90;;;;;;;32.11;27.93;99286.86;103060;1260;103031;-65
2023/04/14 08:40:35;;;;;;;4.70;4.30;;;;;;;32.05;27.77;99287.88;102991;1262;108318;-65
2023/04/14 08:42:58;;;;;;;5.90;4.40;;;;;;;31.96;27.30;99290.84;103691;1260;137376;-65
2023/04/14 08:45:23;;;;;;;6.00;4.20;;;;;;;32.01;28.08;99287.77;102972;1260;108564;-64
2023/04/14 08:47:50;;;;;;;4.70;3.90;;;;;;;32.14;27.86;99288.19;103220;1260;138233;-65
2023/04/14 08:50:17;;;;;;;7.20;4.00;;;;;;;32.28;28.08;99286.88;103268;1256;102556;-65
2023/04/14 08:52:42;;;;;;;7.60;4.10;;;;;;;32.35;27.50;99283.96;102966;1260;100401;-65
2023/04/14 08:55:10;;;;;;;5.60;4.10;;;;;;;32.21;26.66;99279.98;103067;1257;97871;-64
2023/04/14 08:57:35;;;;;;;5.60;3.90;;;;;;;31.98;27.18;99281.95;102929;1259;100018;-64
2023/04/14 08:59:58;;;;;;;6.70;3.80;;;;;;;31.82;27.49;99280.66;103943;1257;137803;-80
2023/04/14 09:02:22;;;;;;;5.20;4.60;;;;;;;31.54;27.34;99279.70;104334;1258;114688;-75
2023/04/14 09:04:48;;;;;;;5.80;4.30;;;;;;;31.19;26.79;99285.30;103281;1259;107590;-72
2023/04/14 09:07:13;;;;;;;6.10;4.30;;;;;;;30.47;26.93;99276.10;103277;1260;97021;-75
2023/04/14 09:09:36;;;;;;;4.20;3.80;;;;;;;29.97;27.73;99273.66;102812;1261;108101;-80
2023/04/14 09:12:02;;;;;;;8.40;4.50;;;;;;;29.84;28.29;99279.29;102785;1265;137773;-82
2023/04/14 09:14:26;;;;;;;4.90;4.30;;;;;;;29.53;27.73;99280.10;102957;1260;110911;-78
2023/04/14 09:16:52;;;;;;;8.80;4.60;;;;;;;29.00;28.18;99275.13;102741;1269;138645;-76
2023/04/14 09:19:16;;;;;;;5.00;4.30;;;;;;;28.71;28.64;99271.83;104332;1260;95979;-75
2023/04/14 09:21:42;;;;;;;7.90;4.10;;;;;;;28.54;29.23;99275.98;104356;1256;107633;-78
2023/04/14 09:24:22;;;;;;;9.40;3.60;;;;;;;28.65;29.74;99266.78;104187;1256;137888;-83
2023/04/14 09:26:46;;;;;;;6.40;4.10;;;;;;;28.65;29.26;99274.42;104329;1260;112837;-80
2023/04/14 09:29:09;;;;;;;7.10;5.00;;;;;;;28.12;29.36;99277.45;104240;1260;137953;-81
2023/04/14 09:31:33;;;;;;;9.40;5.00;;;;;;;27.23;29.66;99279.10;104347;1255;96275;-84
2023/04/14 09:33:57;;;;;;;5.80;4.80;;;;;;;26.07;30.04;99284.09;104371;1258;107149;-82
2023/04/14 09:36:22;;;;;;;5.10;4.60;;;;;;;25.00;31.53;99284.73;104258;1258;138332;-83
2023/04/14 09:38:46;;;;;;;6.60;4.20;;;;;;;24.13;32.48;99287.02;104344;1257;112128;-81
2023/04/14 09:41:15;;;;;;;5.10;4.40;;;;;;;23.65;33.60;99289.37;104108;1257;137811;-83
2023/04/14 09:43:39;;;;;;;8.70;5.00;;;;;;;23.42;34.36;99291.75;103343;1262;97781;-83
2023/04/14 09:46:07;;;;;;;7.00;5.00;;;;;;;23.51;35.09;99286.30;102944;1262;109282;-83
2023/04/14 09:48:31;;;;;;;6.30;4.30;;;;;;;23.84;35.02;99285.18;102801;1262;138245;-86
2023/04/14 09:50:59;;;;;;;6.50;4.40;;;;;;;23.97;34.82;99283.73;102954;1258;110315;-83
2023/04/14 09:53:26;;;;;;;6.90;4.50;;;;;;;23.97;34.70;99287.63;102821;1260;139164;-82
2023/04/14 09:55:51;;;;;;;5.00;4.50;;;;;;;23.77;34.77;99284.48;104257;1257;97277;-81
2023/04/14 09:58:20;;;;;;;5.50;5.00;;;;;;;23.78;35.01;99284.48;103318;1260;107273;-85
2023/04/14 10:00:45;;;;;;;8.70;4.80;;;;;;;23.34;35.24;99278.23;102832;1261;137904;-84
2023/04/14 10:03:09;;;;;;;7.40;4.60;;;;;;;23.34;35.60;99273.23;103007;1260;110276;-83
2023/04/14 10:05:32;;;;;;;6.80;4.80;;;;;;;23.46;35.59;99269.34;102860;1260;137583;-78
2023/04/14 10:08:02;;;;;;;7.20;4.70;;;;;;;23.41;36.00;99268.08;102881;1260;98126;-83
2023/04/14 10:10:26;;;;;;;7.20;4.70;;;;;;;23.75;35.77;99266.05;102910;1267;106922;-85
2023/04/14 10:12:53;;;;;;;7.20;4.80;;;;;;;23.93;35.24;99269.27;102816;1261;137633;-84
2023/04/14 10:15:17;;;;;;;9.20;5.20;;;;;;;23.54;34.73;99268.25;102865;1262;111327;-84
2023/04/14 10:17:41;;;;;;;6.50;4.80;;;;;;;23.10;35.27;99268.80;102801;1258;137657;-85
2023/04/14 10:20:07;;;;;;;5.80;5.30;;;;;;;22.52;35.67;99274.29;102832;1259;98156;-85
2023/04/14 10:22:32;;;;;;;6.10;5.40;;;;;;;22.25;36.47;99266.06;104377;1258;107644;-82
2023/04/14 10:24:57;;;;;;;6.30;5.70;;;;;;;22.35;37.23;99264.20;104172;1258;138522;-83
2023/04/14 10:27:21;;;;;;;7.30;5.30;;;;;;;22.36;36.72;99266.80;102914;1263;111179;-82
2023/04/14 10:29:46;;;;;;;6.60;5.60;;;;;;;22.34;37.16;99271.80;102822;1267;138538;-80
2023/04/14 10:32:12;;;;;;;6.60;5.00;;;;;;;22.47;37.50;99262.88;103075;1256;97797;-87
2023/04/14 10:34:39;;;;;;;5.90;4.70;;;;;;;22.72;37.25;99265.56;102964;1269;108183;-80
2023/04/14 10:37:15;;;;;;;6.10;5.30;;;;;;;22.82;36.86;99264.75;102878;1257;137607;-84
2023/04/14 10:39:39;;;;;;;7.60;5.00;;;;;;;22.78;36.70;99266.02;102981;1258;111918;-83
2023/04/14 10:42:03;;;;;;;7.40;5.40;;;;;;;22.80;36.91;99263.00;102947;1263;137914;-86
2023/04/14 10:44:30;;;;;;;7.20;4.90;;;;;;;22.63;36.83;99263.65;103036;1256;97769;-84
2023/04/14 10:46:55;;;;;;;8.20;5.40;;;;;;;22.18;36.96;99264.52;102818;1256;137630;-83
2023/04/14 10:49:21;;;;;;;9.20;5.30;;;;;;;21.65;37.65;99273.21;103041;1260;97814;-86
2023/04/14 10:51:46;;;;;;;;;;;;;;;21.26;38.16;99275.39;103055;1258;111295;-83
2023/04/14 10:54:17;;;;;;;8.50;5.40;;;;;;;20.79;38.75;99273.66;102953;1269;124150;-84
2023/04/14 10:56:41;;;;;;;8.20;5.60;;;;;;;20.53;39.56;99269.14;102996;1260;97691;-85
2023/04/14 10:59:05;;;;;;;8.10;5.40;;;;;;;20.20;40.09;99274.15;102887;1260;140729;-86
2023/04/14 11:01:30;;;;;;;7.20;5.10;;;;;;;20.09;40.58;99269.56;102947;1261;98225;-86
2023/04/14 11:03:54;;;;;;;7.20;5.50;;;;;;;20.08;40.98;99268.40;102995;1257;112349;-83
2023/04/14 11:06:52;;;;;;;7.50;5.60;;;;;;;20.01;41.19;99264.88;104005;1259;139268;-85
2023/04/14 11:09:24;;;;;;;8.50;5.10;;;;;;;20.02;41.23;99262.27;102895;1257;97796;-84
2023/04/14 11:11:48;;;;;;;10.50;6.30;;;;;;;20.01;41.44;99267.46;103125;1257;137648;-84
2023/04/14 11:14:11;;;;;;;8.00;5.90;;;;;;;19.79;41.72;99263.56;102938;1258;98181;-82
2023/04/14 11:16:38;;;;;;;8.10;6.00;;;;;;;19.85;41.94;99261.44;103049;1258;111469;-82
2023/04/14 11:19:14;;;;;;;6.80;5.40;;;;;;;19.99;41.78;99258.13;103002;1260;105557;-88
2023/04/14 11:21:49;;;;;;;11.50;5.20;;;;;;;20.15;41.96;99253.02;102963;1261;98176;-75